sensor_id;sensor_type;location;lat;lon;timestamp;pressure;altitude;pressure_sealevel;temperature;humidity
17309;BME280;8772;42.804;23.426;2022-11-20T00:01:33;72505.19;;;-140.58;100.00
17309;BME280;8772;42.804;23.426;2022-11-20T00:04:00;72517.50;;;-140.58;100.00
17309;BME280;8772;42.804;23.426;2022-11-20T00:06:28;72513.38;;;-140.58;100.00
17309;BME280;8772;42.804;23.426;2022-11-20T00:08:56;72496.97;;;-140.58;100.00
17309;BME280;8772;42.804;23.426;2022-11-20T00:11:25;72482.63;;;-140.58;100.00
17309;BME280;8772;42.804;23.426;2022-11-20T00:13:54;72492.88;;;-140.58;100.00
17309;BME280;8772;42.804;23.426;2022-11-20T00:16:24;72478.53;;;-140.58;100.00
17309;BME280;8772;42.804;23.426;2022-11-20T00:18:51;72460.06;;;-140.58;100.00
17309;BME280;8772;42.804;23.426;2022-11-20T00:21:19;72468.28;;;-140.58;100.00
17309;BME280;8772;42.804;23.426;2022-11-20T00:23:48;72478.53;;;-140.58;100.00
17309;BME280;8772;42.804;23.426;2022-11-20T00:26:16;72427.25;;;-140.58;100.00
17309;BME280;8772;42.804;23.426;2022-11-20T00:28:50;72421.09;;;-140.58;100.00
17309;BME280;8772;42.804;23.426;2022-11-20T00:31:17;72406.75;;;-140.58;100.00
17309;BME280;8772;42.804;23.426;2022-11-20T00:33:45;72378.03;;;-140.58;54.58
17309;BME280;8772;42.804;23.426;2022-11-20T00:36:14;72378.03;;;-140.58;54.08
17309;BME280;8772;42.804;23.426;2022-11-20T00:38:41;72369.84;;;-140.58;55.09
17309;BME280;8772;42.804;23.426;2022-11-20T00:41:12;72384.19;;;-140.58;55.64
17309;BME280;8772;42.804;23.426;2022-11-20T00:43:39;72390.34;;;-140.58;55.93
17309;BME280;8772;42.804;23.426;2022-11-20T00:46:09;72386.25;;;-140.58;56.34
17309;BME280;8772;42.804;23.426;2022-11-20T00:48:36;72394.44;;;-140.58;55.58
17309;BME280;8772;42.804;23.426;2022-11-20T00:51:03;72376.00;;;-140.58;53.41
17309;BME280;8772;42.804;23.426;2022-11-20T00:53:31;72365.75;;;-140.58;52.42
17309;BME280;8772;42.804;23.426;2022-11-20T00:55:59;72369.84;;;-140.58;53.32
17309;BME280;8772;42.804;23.426;2022-11-20T00:58:30;72359.59;;;-140.58;52.67
17309;BME280;8772;42.804;23.426;2022-11-20T01:01:01;72357.53;;;-140.58;52.60
17309;BME280;8772;42.804;23.426;2022-11-20T01:03:30;72361.66;;;-140.58;53.23
17309;BME280;8772;42.804;23.426;2022-11-20T01:06:20;72361.66;;;-140.58;52.92
17309;BME280;8772;42.804;23.426;2022-11-20T01:08:48;72357.53;;;-140.58;52.27
17309;BME280;8772;42.804;23.426;2022-11-20T01:11:17;72365.75;;;-140.58;52.42
17309;BME280;8772;42.804;23.426;2022-11-20T01:13:47;72361.66;;;-140.58;52.20
17309;BME280;8772;42.804;23.426;2022-11-20T01:16:17;72365.75;;;-140.58;51.90
17309;BME280;8772;42.804;23.426;2022-11-20T01:18:46;72361.66;;;-140.58;52.14
17309;BME280;8772;42.804;23.426;2022-11-20T01:21:15;72345.25;;;-140.58;52.55
17309;BME280;8772;42.804;23.426;2022-11-20T01:23:43;72353.44;;;-140.58;53.09
17309;BME280;8772;42.804;23.426;2022-11-20T01:26:13;72361.66;;;-140.58;53.39
17309;BME280;8772;42.804;23.426;2022-11-20T01:28:41;72373.94;;;-140.58;54.82
17309;BME280;8772;42.804;23.426;2022-11-20T01:31:15;72369.84;;;-140.58;54.63
17309;BME280;8772;42.804;23.426;2022-11-20T01:33:43;72357.53;;;-140.58;55.40
17309;BME280;8772;42.804;23.426;2022-11-20T01:36:10;72357.53;;;-140.58;54.55
17309;BME280;8772;42.804;23.426;2022-11-20T01:38:38;72357.53;;;-140.58;54.53
17309;BME280;8772;42.804;23.426;2022-11-20T01:41:06;72361.66;;;-140.58;54.98
17309;BME280;8772;42.804;23.426;2022-11-20T01:43:33;72345.25;;;-140.58;53.92
17309;BME280;8772;42.804;23.426;2022-11-20T01:46:14;72353.44;;;-140.58;55.39
17309;BME280;8772;42.804;23.426;2022-11-20T01:48:45;72361.66;;;-140.58;55.72
17309;BME280;8772;42.804;23.426;2022-11-20T01:51:19;72357.53;;;-140.58;55.90
17309;BME280;8772;42.804;23.426;2022-11-20T01:53:48;72357.53;;;-140.58;55.14
17309;BME280;8772;42.804;23.426;2022-11-20T01:56:15;72361.66;;;-140.58;55.91
17309;BME280;8772;42.804;23.426;2022-11-20T01:58:47;72384.19;;;-140.58;57.25
17309;BME280;8772;42.804;23.426;2022-11-20T02:01:17;72392.41;;;-140.58;57.17
17309;BME280;8772;42.804;23.426;2022-11-20T02:03:44;72373.94;;;-140.58;57.12
17309;BME280;8772;42.804;23.426;2022-11-20T02:06:14;72373.94;;;-140.58;57.19
17309;BME280;8772;42.804;23.426;2022-11-20T02:08:43;72382.16;;;-140.58;57.91
17309;BME280;8772;42.804;23.426;2022-11-20T02:11:10;72398.56;;;-140.58;59.23
17309;BME280;8772;42.804;23.426;2022-11-20T02:13:38;72361.66;;;-140.58;58.58
17309;BME280;8772;42.804;23.426;2022-11-20T02:16:17;72378.03;;;-140.58;58.29
17309;BME280;8772;42.804;23.426;2022-11-20T02:18:46;72371.91;;;-140.58;58.44
17309;BME280;8772;42.804;23.426;2022-11-20T02:21:28;72378.03;;;-140.58;58.28
17309;BME280;8772;42.804;23.426;2022-11-20T02:24:04;72373.94;;;-140.58;57.84
17309;BME280;8772;42.804;23.426;2022-11-20T02:26:33;72380.09;;;-140.58;58.01
17309;BME280;8772;42.804;23.426;2022-11-20T02:29:02;72386.25;;;-140.58;58.41
17309;BME280;8772;42.804;23.426;2022-11-20T02:31:33;72373.94;;;-140.58;58.87
17309;BME280;8772;42.804;23.426;2022-11-20T02:34:00;72388.31;;;-140.58;59.08
17309;BME280;8772;42.804;23.426;2022-11-20T02:36:28;72388.31;;;-140.58;59.01
17309;BME280;8772;42.804;23.426;2022-11-20T02:38:56;72386.25;;;-140.58;59.10
17309;BME280;8772;42.804;23.426;2022-11-20T02:41:32;72398.56;;;-140.58;59.15
17309;BME280;8772;42.804;23.426;2022-11-20T02:43:59;72410.84;;;-140.58;59.13
17309;BME280;8772;42.804;23.426;2022-11-20T02:46:26;72408.81;;;-140.58;59.22
17309;BME280;8772;42.804;23.426;2022-11-20T02:48:53;72406.75;;;-140.58;58.16
17309;BME280;8772;42.804;23.426;2022-11-20T02:51:20;72408.81;;;-140.58;58.52
17309;BME280;8772;42.804;23.426;2022-11-20T02:53:47;72414.97;;;-140.58;58.92
17309;BME280;8772;42.804;23.426;2022-11-20T02:56:14;72419.06;;;-140.58;59.17
17309;BME280;8772;42.804;23.426;2022-11-20T02:58:42;72419.06;;;-140.58;57.92
17309;BME280;8772;42.804;23.426;2022-11-20T03:01:09;72423.16;;;-140.58;58.24
17309;BME280;8772;42.804;23.426;2022-11-20T03:03:36;72412.91;;;-140.58;57.73
17309;BME280;8772;42.804;23.426;2022-11-20T03:06:03;72429.31;;;-140.58;58.22
17309;BME280;8772;42.804;23.426;2022-11-20T03:08:30;72431.38;;;-140.58;58.52
17309;BME280;8772;42.804;23.426;2022-11-20T03:10:57;72433.41;;;-140.58;57.38
17309;BME280;8772;42.804;23.426;2022-11-20T03:13:28;72443.66;;;-140.58;57.60
17309;BME280;8772;42.804;23.426;2022-11-20T03:15:56;72439.56;;;-140.58;57.26
17309;BME280;8772;42.804;23.426;2022-11-20T03:18:23;72455.97;;;-140.58;57.37
17309;BME280;8772;42.804;23.426;2022-11-20T03:20:50;72449.81;;;-140.58;57.05
17309;BME280;8772;42.804;23.426;2022-11-20T03:23:16;72449.81;;;-140.58;56.64
17309;BME280;8772;42.804;23.426;2022-11-20T03:25:43;72451.88;;;-140.58;56.51
17309;BME280;8772;42.804;23.426;2022-11-20T03:28:10;72451.88;;;-140.58;55.74
17309;BME280;8772;42.804;23.426;2022-11-20T03:30:37;72460.06;;;-140.58;56.94
17309;BME280;8772;42.804;23.426;2022-11-20T03:33:05;72455.97;;;-140.58;56.53
17309;BME280;8772;42.804;23.426;2022-11-20T03:35:32;72447.78;;;-140.58;56.56
17309;BME280;8772;42.804;23.426;2022-11-20T03:37:59;72451.88;;;-140.58;56.34
17309;BME280;8772;42.804;23.426;2022-11-20T03:40:25;72460.06;;;-140.58;56.72
17309;BME280;8772;42.804;23.426;2022-11-20T03:42:52;72455.97;;;-140.58;56.38
17309;BME280;8772;42.804;23.426;2022-11-20T03:45:19;72455.97;;;-140.58;56.76
17309;BME280;8772;42.804;23.426;2022-11-20T03:47:46;72451.88;;;-140.58;56.20
17309;BME280;8772;42.804;23.426;2022-11-20T03:50:15;72447.78;;;-140.58;56.47
17309;BME280;8772;42.804;23.426;2022-11-20T03:52:42;72439.56;;;-140.58;56.63
17309;BME280;8772;42.804;23.426;2022-11-20T03:55:09;72435.47;;;-140.58;56.67
17309;BME280;8772;42.804;23.426;2022-11-20T03:57:36;72435.47;;;-140.58;57.88
17309;BME280;8772;42.804;23.426;2022-11-20T04:00:03;72439.56;;;-140.58;57.91
17309;BME280;8772;42.804;23.426;2022-11-20T04:02:30;72445.72;;;-140.58;58.65
17309;BME280;8772;42.804;23.426;2022-11-20T04:04:57;72451.88;;;-140.58;58.01
17309;BME280;8772;42.804;23.426;2022-11-20T04:07:25;72458.03;;;-140.58;58.32
17309;BME280;8772;42.804;23.426;2022-11-20T04:09:52;72451.88;;;-140.58;58.70
17309;BME280;8772;42.804;23.426;2022-11-20T04:12:19;72451.88;;;-140.58;59.00
17309;BME280;8772;42.804;23.426;2022-11-20T04:14:46;72458.03;;;-140.58;60.02
17309;BME280;8772;42.804;23.426;2022-11-20T04:17:13;72455.97;;;-140.58;60.35
17309;BME280;8772;42.804;23.426;2022-11-20T04:19:40;72466.22;;;-140.58;60.15
17309;BME280;8772;42.804;23.426;2022-11-20T04:22:06;72460.06;;;-140.58;60.40
17309;BME280;8772;42.804;23.426;2022-11-20T04:24:35;72449.81;;;-140.58;60.35
17309;BME280;8772;42.804;23.426;2022-11-20T04:27:03;72451.88;;;-140.58;60.14
17309;BME280;8772;42.804;23.426;2022-11-20T04:29:30;72460.06;;;-140.58;60.43
17309;BME280;8772;42.804;23.426;2022-11-20T04:31:56;72451.88;;;-140.58;61.20
17309;BME280;8772;42.804;23.426;2022-11-20T04:34:23;72460.06;;;-140.58;61.96
17309;BME280;8772;42.804;23.426;2022-11-20T04:36:50;72476.47;;;-140.58;61.25
17309;BME280;8772;42.804;23.426;2022-11-20T04:39:17;72484.69;;;-140.58;61.18
17309;BME280;8772;42.804;23.426;2022-11-20T04:41:45;72480.59;;;-140.58;60.06
17309;BME280;8772;42.804;23.426;2022-11-20T04:44:12;72472.38;;;-140.58;59.87
17309;BME280;8772;42.804;23.426;2022-11-20T04:46:40;72462.13;;;-140.58;58.90
17309;BME280;8772;42.804;23.426;2022-11-20T04:49:08;72464.16;;;-140.58;56.96
17309;BME280;8772;42.804;23.426;2022-11-20T04:51:35;72466.22;;;-140.58;58.12
17309;BME280;8772;42.804;23.426;2022-11-20T04:54:02;72468.28;;;-140.58;57.64
17309;BME280;8772;42.804;23.426;2022-11-20T04:56:29;72466.22;;;-140.58;58.04
17309;BME280;8772;42.804;23.426;2022-11-20T04:59:01;72462.13;;;-140.58;56.75
17309;BME280;8772;42.804;23.426;2022-11-20T05:01:28;72455.97;;;-140.58;56.83
17309;BME280;8772;42.804;23.426;2022-11-20T05:03:55;72451.88;;;-140.58;57.00
17309;BME280;8772;42.804;23.426;2022-11-20T05:06:22;72451.88;;;-140.58;57.14
17309;BME280;8772;42.804;23.426;2022-11-20T05:08:49;72443.66;;;-140.58;56.10
17309;BME280;8772;42.804;23.426;2022-11-20T05:11:18;72437.50;;;-140.58;56.43
17309;BME280;8772;42.804;23.426;2022-11-20T05:13:46;72427.25;;;-140.58;56.44
17309;BME280;8772;42.804;23.426;2022-11-20T05:16:16;72421.09;;;-140.58;55.98
17309;BME280;8772;42.804;23.426;2022-11-20T05:18:43;72406.75;;;-140.58;55.11
17309;BME280;8772;42.804;23.426;2022-11-20T05:21:12;72398.56;;;-140.58;55.91
17309;BME280;8772;42.804;23.426;2022-11-20T05:23:40;72394.44;;;-140.58;56.19
17309;BME280;8772;42.804;23.426;2022-11-20T05:26:11;72412.91;;;-140.58;57.01
17309;BME280;8772;42.804;23.426;2022-11-20T05:28:38;72414.97;;;-140.58;56.91
17309;BME280;8772;42.804;23.426;2022-11-20T05:31:06;72427.25;;;-140.58;57.14
17309;BME280;8772;42.804;23.426;2022-11-20T05:33:35;72439.56;;;-140.58;56.74
17309;BME280;8772;42.804;23.426;2022-11-20T05:36:03;72447.78;;;-140.58;57.70
17309;BME280;8772;42.804;23.426;2022-11-20T05:38:30;72439.56;;;-140.58;58.21
17309;BME280;8772;42.804;23.426;2022-11-20T05:41:03;72431.38;;;-140.58;57.86
17309;BME280;8772;42.804;23.426;2022-11-20T05:43:32;72443.66;;;-140.58;58.22
17309;BME280;8772;42.804;23.426;2022-11-20T05:45:59;72451.88;;;-140.58;58.40
17309;BME280;8772;42.804;23.426;2022-11-20T05:48:26;72445.72;;;-140.58;58.54
17309;BME280;8772;42.804;23.426;2022-11-20T05:50:56;72460.06;;;-140.58;59.49
17309;BME280;8772;42.804;23.426;2022-11-20T05:53:23;72455.97;;;-140.58;59.13
17309;BME280;8772;42.804;23.426;2022-11-20T05:55:56;72455.97;;;-140.58;59.87
17309;BME280;8772;42.804;23.426;2022-11-20T05:58:23;72468.28;;;-140.58;60.36
17309;BME280;8772;42.804;23.426;2022-11-20T06:00:50;72472.38;;;-140.58;60.64
17309;BME280;8772;42.804;23.426;2022-11-20T06:03:17;72455.97;;;-140.58;61.10
17309;BME280;8772;42.804;23.426;2022-11-20T06:05:44;72445.72;;;-140.58;60.23
17309;BME280;8772;42.804;23.426;2022-11-20T06:08:12;72455.97;;;-140.58;60.30
17309;BME280;8772;42.804;23.426;2022-11-20T06:10:39;72460.06;;;-140.58;59.92
17309;BME280;8772;42.804;23.426;2022-11-20T06:13:06;72455.97;;;-140.58;60.21
17309;BME280;8772;42.804;23.426;2022-11-20T06:15:33;72453.91;;;-140.58;59.03
17309;BME280;8772;42.804;23.426;2022-11-20T06:17:59;72439.56;;;-140.58;56.50
17309;BME280;8772;42.804;23.426;2022-11-20T06:20:26;72447.78;;;-140.58;58.55
17309;BME280;8772;42.804;23.426;2022-11-20T06:22:53;72449.81;;;-140.58;59.56
17309;BME280;8772;42.804;23.426;2022-11-20T06:25:21;72443.66;;;-140.58;58.92
17309;BME280;8772;42.804;23.426;2022-11-20T06:27:48;72443.66;;;-140.58;59.01
17309;BME280;8772;42.804;23.426;2022-11-20T06:30:15;72433.41;;;-140.58;57.96
17309;BME280;8772;42.804;23.426;2022-11-20T06:32:42;72437.50;;;-140.58;58.63
17309;BME280;8772;42.804;23.426;2022-11-20T06:35:09;72439.56;;;-140.58;58.92
17309;BME280;8772;42.804;23.426;2022-11-20T06:37:38;72437.50;;;-140.58;59.56
17309;BME280;8772;42.804;23.426;2022-11-20T06:40:06;72447.78;;;-140.58;59.08
17309;BME280;8772;42.804;23.426;2022-11-20T06:42:34;72443.66;;;-140.58;59.72
17309;BME280;8772;42.804;23.426;2022-11-20T06:45:01;72445.72;;;-140.58;58.66
17309;BME280;8772;42.804;23.426;2022-11-20T06:47:28;72451.88;;;-140.58;58.90
17309;BME280;8772;42.804;23.426;2022-11-20T06:49:55;72443.66;;;-140.58;57.75
17309;BME280;8772;42.804;23.426;2022-11-20T06:52:21;72441.63;;;-140.58;58.92
17309;BME280;8772;42.804;23.426;2022-11-20T06:54:48;72443.66;;;-140.58;59.25
17309;BME280;8772;42.804;23.426;2022-11-20T06:57:15;72435.47;;;-140.58;56.17
17309;BME280;8772;42.804;23.426;2022-11-20T06:59:43;72435.47;;;-140.58;55.11
17309;BME280;8772;42.804;23.426;2022-11-20T07:02:10;72431.38;;;-140.58;56.14
17309;BME280;8772;42.804;23.426;2022-11-20T07:04:38;72414.97;;;-140.58;56.90
17309;BME280;8772;42.804;23.426;2022-11-20T07:07:05;72408.81;;;-140.58;56.61
17309;BME280;8772;42.804;23.426;2022-11-20T07:09:32;72406.75;;;-140.58;56.77
17309;BME280;8772;42.804;23.426;2022-11-20T07:11:59;72396.50;;;-140.58;56.81
17309;BME280;8772;42.804;23.426;2022-11-20T07:14:26;72402.66;;;-140.58;57.04
17309;BME280;8772;42.804;23.426;2022-11-20T07:16:54;72412.91;;;-140.58;56.79
17309;BME280;8772;42.804;23.426;2022-11-20T07:19:21;72410.84;;;-140.58;57.81
17309;BME280;8772;42.804;23.426;2022-11-20T07:21:48;72408.81;;;-140.58;58.29
17309;BME280;8772;42.804;23.426;2022-11-20T07:24:15;72417.00;;;-140.58;58.17
17309;BME280;8772;42.804;23.426;2022-11-20T07:26:41;72421.09;;;-140.58;58.39
17309;BME280;8772;42.804;23.426;2022-11-20T07:29:12;72431.38;;;-140.58;58.02
17309;BME280;8772;42.804;23.426;2022-11-20T07:31:39;72423.16;;;-140.58;59.48
17309;BME280;8772;42.804;23.426;2022-11-20T07:34:07;72433.41;;;-140.58;61.42
17309;BME280;8772;42.804;23.426;2022-11-20T07:36:34;72445.72;;;-140.58;62.60
17309;BME280;8772;42.804;23.426;2022-11-20T07:39:01;72443.66;;;-140.58;64.35
17309;BME280;8772;42.804;23.426;2022-11-20T07:41:28;72435.47;;;-140.58;64.33
17309;BME280;8772;42.804;23.426;2022-11-20T07:43:55;72447.78;;;-140.58;69.22
17309;BME280;8772;42.804;23.426;2022-11-20T07:46:22;72462.13;;;-140.58;67.87
17309;BME280;8772;42.804;23.426;2022-11-20T07:48:49;72472.38;;;-140.58;66.79
17309;BME280;8772;42.804;23.426;2022-11-20T07:51:17;72472.38;;;-140.58;67.43
17309;BME280;8772;42.804;23.426;2022-11-20T07:53:44;72494.94;;;-140.58;69.14
17309;BME280;8772;42.804;23.426;2022-11-20T07:56:11;72478.53;;;-140.58;67.74
17309;BME280;8772;42.804;23.426;2022-11-20T07:58:39;72496.97;;;-140.58;69.44
17309;BME280;8772;42.804;23.426;2022-11-20T08:01:07;72484.69;;;-140.58;70.05
17309;BME280;8772;42.804;23.426;2022-11-20T08:03:35;72482.63;;;-140.58;69.34
17309;BME280;8772;42.804;23.426;2022-11-20T08:06:04;72492.88;;;-140.58;70.17
17309;BME280;8772;42.804;23.426;2022-11-20T08:08:32;72496.97;;;-140.58;68.95
17309;BME280;8772;42.804;23.426;2022-11-20T08:10:59;72507.25;;;-140.58;71.44
17309;BME280;8772;42.804;23.426;2022-11-20T08:13:40;72499.03;;;-140.58;69.79
17309;BME280;8772;42.804;23.426;2022-11-20T08:16:24;72521.59;;;-140.58;71.10
17309;BME280;8772;42.804;23.426;2022-11-20T08:18:51;72513.38;;;-140.58;72.58
17309;BME280;8772;42.804;23.426;2022-11-20T08:21:18;72525.69;;;-140.58;72.53
17309;BME280;8772;42.804;23.426;2022-11-20T08:23:46;72511.34;;;-140.58;73.88
17309;BME280;8772;42.804;23.426;2022-11-20T08:26:13;72513.38;;;-140.58;75.02
17309;BME280;8772;42.804;23.426;2022-11-20T08:28:40;72521.59;;;-140.58;73.58
17309;BME280;8772;42.804;23.426;2022-11-20T08:31:06;72529.78;;;-140.58;70.97
17309;BME280;8772;42.804;23.426;2022-11-20T08:33:35;72538.00;;;-140.58;80.37
17309;BME280;8772;42.804;23.426;2022-11-20T08:36:03;72525.69;;;-140.58;75.85
17309;BME280;8772;42.804;23.426;2022-11-20T08:38:30;72533.91;;;-140.58;77.83
17309;BME280;8772;42.804;23.426;2022-11-20T08:40:59;72538.00;;;-140.58;77.07
17309;BME280;8772;42.804;23.426;2022-11-20T08:43:44;72538.00;;;-140.58;77.84
17309;BME280;8772;42.804;23.426;2022-11-20T08:46:11;72535.94;;;-140.58;81.34
17309;BME280;8772;42.804;23.426;2022-11-20T08:48:38;72542.09;;;-140.58;81.73
17309;BME280;8772;42.804;23.426;2022-11-20T08:51:05;72554.41;;;-140.58;83.25
17309;BME280;8772;42.804;23.426;2022-11-20T08:53:32;72562.59;;;-140.58;89.35
17309;BME280;8772;42.804;23.426;2022-11-20T08:56:00;72570.81;;;-140.58;98.08
17309;BME280;8772;42.804;23.426;2022-11-20T08:58:27;72574.91;;;-140.58;100.00
17309;BME280;8772;42.804;23.426;2022-11-20T09:00:54;72581.06;;;-140.58;100.00
17309;BME280;8772;42.804;23.426;2022-11-20T09:03:22;72620.03;;;-140.58;100.00
17309;BME280;8772;42.804;23.426;2022-11-20T09:05:49;72681.53;;;-140.58;100.00
17309;BME280;8772;42.804;23.426;2022-11-20T09:08:15;72669.25;;;-140.58;100.00
17309;BME280;8772;42.804;23.426;2022-11-20T09:10:42;72661.03;;;-140.58;100.00
17309;BME280;8772;42.804;23.426;2022-11-20T09:13:11;72687.69;;;-140.58;100.00
17309;BME280;8772;42.804;23.426;2022-11-20T09:15:37;72689.75;;;-140.58;100.00
17309;BME280;8772;42.804;23.426;2022-11-20T09:18:04;72691.81;;;-140.58;100.00
17309;BME280;8772;42.804;23.426;2022-11-20T09:20:31;72691.81;;;-140.58;100.00
17309;BME280;8772;42.804;23.426;2022-11-20T09:22:58;72685.66;;;-140.58;100.00
17309;BME280;8772;42.804;23.426;2022-11-20T09:25:25;72689.75;;;-140.58;100.00
17309;BME280;8772;42.804;23.426;2022-11-20T09:27:55;72697.97;;;-140.58;100.00
17309;BME280;8772;42.804;23.426;2022-11-20T09:30:24;72706.16;;;-140.58;100.00
17309;BME280;8772;42.804;23.426;2022-11-20T09:32:51;72697.97;;;-140.58;100.00
17309;BME280;8772;42.804;23.426;2022-11-20T09:35:18;72718.47;;;-140.58;100.00
17309;BME280;8772;42.804;23.426;2022-11-20T09:37:45;72722.56;;;-140.58;100.00
17309;BME280;8772;42.804;23.426;2022-11-20T09:40:19;72726.66;;;-140.58;100.00
17309;BME280;8772;42.804;23.426;2022-11-20T09:42:51;72726.66;;;-140.58;100.00
17309;BME280;8772;42.804;23.426;2022-11-20T09:45:35;72728.72;;;-140.58;100.00
17309;BME280;8772;42.804;23.426;2022-11-20T09:48:18;72714.34;;;-140.58;100.00
17309;BME280;8772;42.804;23.426;2022-11-20T09:50:52;72732.81;;;-140.58;100.00
17309;BME280;8772;42.804;23.426;2022-11-20T09:53:28;72724.63;;;-140.58;100.00
17309;BME280;8772;42.804;23.426;2022-11-20T09:55:58;72734.88;;;-140.58;100.00
17309;BME280;8772;42.804;23.426;2022-11-20T09:58:30;72710.25;;;-140.58;100.00
17309;BME280;8772;42.804;23.426;2022-11-20T10:01:05;72704.09;;;-140.58;100.00
17309;BME280;8772;42.804;23.426;2022-11-20T10:03:41;72710.25;;;-140.58;100.00
17309;BME280;8772;42.804;23.426;2022-11-20T10:06:16;72704.09;;;-140.58;100.00
17309;BME280;8772;42.804;23.426;2022-11-20T10:08:48;72704.09;;;-140.58;100.00
17309;BME280;8772;42.804;23.426;2022-11-20T10:11:24;72714.34;;;-140.58;100.00
17309;BME280;8772;42.804;23.426;2022-11-20T10:14:06;72702.06;;;-140.58;100.00
17309;BME280;8772;42.804;23.426;2022-11-20T10:16:42;72730.78;;;-140.58;100.00
17309;BME280;8772;42.804;23.426;2022-11-20T10:19:27;72732.81;;;-140.58;100.00
17309;BME280;8772;42.804;23.426;2022-11-20T10:22:04;72734.88;;;-140.58;100.00
17309;BME280;8772;42.804;23.426;2022-11-20T10:24:42;72726.66;;;-140.58;100.00
17309;BME280;8772;42.804;23.426;2022-11-20T10:27:25;72728.72;;;-140.58;100.00
17309;BME280;8772;42.804;23.426;2022-11-20T10:30:01;72743.06;;;-140.58;100.00
17309;BME280;8772;42.804;23.426;2022-11-20T10:32:34;72751.28;;;-140.58;100.00
17309;BME280;8772;42.804;23.426;2022-11-20T10:35:06;72734.88;;;-140.58;100.00
17309;BME280;8772;42.804;23.426;2022-11-20T10:37:38;72730.78;;;-140.58;100.00
17309;BME280;8772;42.804;23.426;2022-11-20T10:40:20;72714.34;;;-140.58;100.00
17309;BME280;8772;42.804;23.426;2022-11-20T10:42:51;72726.66;;;-140.58;100.00
17309;BME280;8772;42.804;23.426;2022-11-20T10:45:32;72726.66;;;-140.58;100.00
17309;BME280;8772;42.804;23.426;2022-11-20T10:48:10;72710.25;;;-140.58;100.00
17309;BME280;8772;42.804;23.426;2022-11-20T10:50:40;72734.88;;;-140.58;100.00
17309;BME280;8772;42.804;23.426;2022-11-20T10:53:22;72747.19;;;-140.58;100.00
17309;BME280;8772;42.804;23.426;2022-11-20T10:55:59;72730.78;;;-140.58;100.00
17309;BME280;8772;42.804;23.426;2022-11-20T10:58:34;72745.13;;;-140.58;100.00
17309;BME280;8772;42.804;23.426;2022-11-20T11:01:13;72738.97;;;-140.58;100.00
17309;BME280;8772;42.804;23.426;2022-11-20T11:03:42;72724.63;;;-140.58;100.00
17309;BME280;8772;42.804;23.426;2022-11-20T11:06:18;72722.56;;;-140.58;100.00
17309;BME280;8772;42.804;23.426;2022-11-20T11:08:50;72730.78;;;-140.58;100.00
17309;BME280;8772;42.804;23.426;2022-11-20T11:11:21;72745.13;;;-140.58;100.00
17309;BME280;8772;42.804;23.426;2022-11-20T11:13:50;72782.03;;;-140.58;100.00
17309;BME280;8772;42.804;23.426;2022-11-20T11:16:21;72775.88;;;-140.58;100.00
17309;BME280;8772;42.804;23.426;2022-11-20T11:18:50;72788.19;;;-140.58;100.00
17309;BME280;8772;42.804;23.426;2022-11-20T11:21:22;72821.00;;;-140.58;100.00
17309;BME280;8772;42.804;23.426;2022-11-20T11:23:58;72853.81;;;-140.58;100.00
17309;BME280;8772;42.804;23.426;2022-11-20T11:26:26;72853.81;;;-140.58;100.00
17309;BME280;8772;42.804;23.426;2022-11-20T11:28:55;72845.63;;;-140.58;100.00
17309;BME280;8772;42.804;23.426;2022-11-20T11:31:23;72851.75;;;-140.58;100.00
17309;BME280;8772;42.804;23.426;2022-11-20T11:33:52;72839.47;;;-140.58;100.00
17309;BME280;8772;42.804;23.426;2022-11-20T11:36:21;72853.81;;;-140.58;100.00
17309;BME280;8772;42.804;23.426;2022-11-20T11:38:51;72862.03;;;-140.58;100.00
17309;BME280;8772;42.804;23.426;2022-11-20T11:41:22;72870.22;;;-140.58;100.00
17309;BME280;8772;42.804;23.426;2022-11-20T11:43:52;72882.53;;;-140.58;100.00
17309;BME280;8772;42.804;23.426;2022-11-20T11:46:37;72888.69;;;-140.58;100.00
17309;BME280;8772;42.804;23.426;2022-11-20T11:49:18;72892.78;;;-140.58;100.00
17309;BME280;8772;42.804;23.426;2022-11-20T11:52:00;72907.13;;;-140.58;100.00
17309;BME280;8772;42.804;23.426;2022-11-20T11:54:34;72911.25;;;-140.58;100.00
17309;BME280;8772;42.804;23.426;2022-11-20T11:57:08;72911.25;;;-140.58;100.00
17309;BME280;8772;42.804;23.426;2022-11-20T11:59:47;72923.56;;;-140.58;100.00
17309;BME280;8772;42.804;23.426;2022-11-20T12:02:27;72939.97;;;-140.58;100.00
17309;BME280;8772;42.804;23.426;2022-11-20T12:05:00;72944.06;;;-140.58;100.00
17309;BME280;8772;42.804;23.426;2022-11-20T12:07:38;72948.16;;;-140.58;100.00
17309;BME280;8772;42.804;23.426;2022-11-20T12:10:15;72964.56;;;-140.58;100.00
17309;BME280;8772;42.804;23.426;2022-11-20T12:12:45;72980.97;;;-140.58;100.00
17309;BME280;8772;42.804;23.426;2022-11-20T12:15:29;73003.53;;;-140.58;100.00
17309;BME280;8772;42.804;23.426;2022-11-20T12:17:56;73001.47;;;-140.58;100.00
17309;BME280;8772;42.804;23.426;2022-11-20T12:20:28;73009.69;;;-140.58;100.00
17309;BME280;8772;42.804;23.426;2022-11-20T12:23:01;73017.91;;;-140.58;100.00
17309;BME280;8772;42.804;23.426;2022-11-20T12:25:34;73022.00;;;-140.58;100.00
17309;BME280;8772;42.804;23.426;2022-11-20T12:28:21;73017.91;;;-140.58;100.00
17309;BME280;8772;42.804;23.426;2022-11-20T12:31:02;73036.34;;;-140.58;100.00
17309;BME280;8772;42.804;23.426;2022-11-20T12:33:45;73046.59;;;-140.58;100.00
17309;BME280;8772;42.804;23.426;2022-11-20T12:36:21;73034.31;;;-140.58;100.00
17309;BME280;8772;42.804;23.426;2022-11-20T12:39:02;73044.56;;;-140.58;100.00
17309;BME280;8772;42.804;23.426;2022-11-20T12:41:50;73046.59;;;-140.58;100.00
17309;BME280;8772;42.804;23.426;2022-11-20T12:44:59;73034.31;;;-140.58;100.00
17309;BME280;8772;42.804;23.426;2022-11-20T12:47:50;73032.25;;;-140.58;100.00
17309;BME280;8772;42.804;23.426;2022-11-20T12:50:23;73022.00;;;-140.58;100.00